createdAt,value
2024-01-24T00:00:39.289Z,2.85
2024-01-24T00:01:39.210Z,2.88
2024-01-24T00:02:39.117Z,2.91
2024-01-24T00:03:39.133Z,2.96
2024-01-24T00:04:39.055Z,2.83
2024-01-24T00:05:39.026Z,2.85
2024-01-24T00:06:39.098Z,3.21
2024-01-24T00:07:38.982Z,2.84
2024-01-24T00:08:38.933Z,2.58
2024-01-24T00:09:38.934Z,2.61
2024-01-24T00:10:38.905Z,2.65
2024-01-24T00:11:38.999Z,2.64
2024-01-24T00:12:38.970Z,2.73
2024-01-24T00:13:38.962Z,2.74
2024-01-24T00:14:38.973Z,2.47
2024-01-24T00:15:39.029Z,2.76
2024-01-24T00:16:39.009Z,2.62
2024-01-24T00:17:39.070Z,3.18
2024-01-24T00:18:39.098Z,2.58
2024-01-24T00:19:39.182Z,2.79
2024-01-24T00:20:39.087Z,2.82
2024-01-24T00:21:39.121Z,2.61
2024-01-24T00:22:39.121Z,3.23
2024-01-24T00:23:39.161Z,2.89
2024-01-24T00:24:39.173Z,2.67
2024-01-24T00:25:39.200Z,2.44
2024-01-24T00:26:39.211Z,2.54
2024-01-24T00:27:39.257Z,2.89
2024-01-24T00:28:39.244Z,3.04
2024-01-24T00:29:39.262Z,2.64
2024-01-24T00:30:39.345Z,2.89
2024-01-24T00:31:39.305Z,2.86
2024-01-24T00:32:39.381Z,2.74
2024-01-24T00:33:39.423Z,2.66
2024-01-24T00:34:39.403Z,2.20
2024-01-24T00:35:39.412Z,2.77
2024-01-24T00:36:39.455Z,2.79
2024-01-24T00:37:39.430Z,2.67
2024-01-24T00:38:39.464Z,2.72
2024-01-24T00:39:39.530Z,2.74
2024-01-24T00:40:39.527Z,2.55
2024-01-24T00:41:39.535Z,2.63
2024-01-24T00:42:39.577Z,2.52
2024-01-24T00:43:39.580Z,2.60
2024-01-24T00:44:39.609Z,2.33
2024-01-24T00:45:39.641Z,2.55
2024-01-24T00:46:39.641Z,3.04
2024-01-24T00:47:39.652Z,2.09
2024-01-24T00:48:39.800Z,2.50
2024-01-24T00:49:39.756Z,2.39
2024-01-24T00:50:39.708Z,3.01
2024-01-24T00:51:39.786Z,2.70
2024-01-24T00:52:39.749Z,2.38
2024-01-24T00:53:39.774Z,2.38
2024-01-24T00:54:39.782Z,2.71
2024-01-24T00:55:39.796Z,2.51
2024-01-24T00:56:39.810Z,2.28
2024-01-24T00:57:39.872Z,2.58
2024-01-24T00:58:39.845Z,2.62
2024-01-24T00:59:39.846Z,2.38
2024-01-24T01:00:39.948Z,2.26
2024-01-24T01:01:39.894Z,2.35
2024-01-24T01:02:39.906Z,2.52
2024-01-24T01:03:40.006Z,2.60
2024-01-24T01:04:39.926Z,2.44
2024-01-24T01:05:40.029Z,2.47
2024-01-24T01:06:40.005Z,2.51
2024-01-24T01:07:39.998Z,2.77
2024-01-24T01:08:40.025Z,2.59
2024-01-24T01:09:40.012Z,2.29
2024-01-24T01:10:40.037Z,2.50
2024-01-24T01:11:40.061Z,2.41
2024-01-24T01:12:40.072Z,2.13
2024-01-24T01:13:40.000Z,2.28
2024-01-24T01:14:39.967Z,2.70
2024-01-24T01:15:40.004Z,2.22
2024-01-24T01:16:39.937Z,2.19
2024-01-24T01:17:39.914Z,2.37
2024-01-24T01:18:39.901Z,2.31
2024-01-24T01:19:39.853Z,2.47
2024-01-24T01:20:39.772Z,2.61
2024-01-24T01:21:39.774Z,2.65
2024-01-24T01:22:39.725Z,2.54
2024-01-24T01:23:39.675Z,2.81
2024-01-24T01:24:39.676Z,1.80
2024-01-24T01:25:39.594Z,2.11
2024-01-24T01:26:39.579Z,2.61
2024-01-24T01:27:39.566Z,2.17
2024-01-24T01:28:39.542Z,2.39
2024-01-24T01:29:39.548Z,2.16
2024-01-24T01:30:39.572Z,2.82
2024-01-24T01:31:39.607Z,2.07
2024-01-24T01:32:39.631Z,2.50
2024-01-24T01:33:39.761Z,2.29
2024-01-24T01:34:39.868Z,2.27
2024-01-24T01:35:39.724Z,2.34
2024-01-24T01:36:39.794Z,2.66
2024-01-24T01:37:39.738Z,2.02
2024-01-24T01:38:39.704Z,2.04
2024-01-24T01:39:39.710Z,2.48
2024-01-24T01:40:39.632Z,2.28
2024-01-24T01:41:39.625Z,2.25
2024-01-24T01:42:39.607Z,2.12
2024-01-24T01:43:39.578Z,2.41
2024-01-24T01:44:39.530Z,1.85
2024-01-24T01:45:39.545Z,2.14
2024-01-24T01:46:39.472Z,2.14
2024-01-24T01:47:39.462Z,2.33
2024-01-24T01:48:39.587Z,2.42
2024-01-24T01:49:39.516Z,2.41
2024-01-24T01:50:39.351Z,2.09
2024-01-24T01:51:39.364Z,2.10
2024-01-24T01:52:39.287Z,2.22
2024-01-24T01:53:39.315Z,1.88
2024-01-24T01:54:39.257Z,1.93
2024-01-24T01:55:39.209Z,2.22
2024-01-24T01:56:39.183Z,2.02
2024-01-24T01:57:39.212Z,2.30
2024-01-24T01:58:39.111Z,1.90
2024-01-24T01:59:39.083Z,2.20
2024-01-24T02:00:39.074Z,2.33
2024-01-24T02:01:39.051Z,2.33
2024-01-24T02:02:39.063Z,2.02
2024-01-24T02:03:39.185Z,2.13
2024-01-24T02:04:38.954Z,2.21
2024-01-24T02:05:39.480Z,2.44
2024-01-24T02:06:39.113Z,2.25
2024-01-24T02:07:39.089Z,2.38
2024-01-24T02:08:38.992Z,1.99
2024-01-24T02:09:39.006Z,2.19
2024-01-24T02:10:39.004Z,2.12
2024-01-24T02:11:39.027Z,2.61
2024-01-24T02:12:39.113Z,1.90
2024-01-24T02:13:39.110Z,2.04
2024-01-24T02:14:39.080Z,2.24
2024-01-24T02:15:39.117Z,2.01
2024-01-24T02:16:39.122Z,2.13
2024-01-24T02:17:39.168Z,1.99
2024-01-24T02:18:39.196Z,2.26
2024-01-24T02:19:39.220Z,2.10
2024-01-24T02:20:39.198Z,2.65
2024-01-24T02:21:39.247Z,2.19
2024-01-24T02:22:39.243Z,1.86
2024-01-24T02:23:39.248Z,2.50
2024-01-24T02:24:39.356Z,2.26
2024-01-24T02:25:39.300Z,2.54
2024-01-24T02:26:39.324Z,2.12
2024-01-24T02:27:39.433Z,2.32
2024-01-24T02:28:39.369Z,2.49
2024-01-24T02:29:39.388Z,2.10
2024-01-24T02:30:39.431Z,2.06
2024-01-24T02:31:39.331Z,2.35
2024-01-24T02:32:39.386Z,2.01
2024-01-24T02:33:39.386Z,2.48
2024-01-24T02:34:39.493Z,1.60
2024-01-24T02:35:39.250Z,2.06
2024-01-24T02:36:39.259Z,2.37
2024-01-24T02:37:39.199Z,1.77
2024-01-24T02:38:39.192Z,1.75
2024-01-24T02:39:39.201Z,2.03
2024-01-24T02:40:39.121Z,2.03
2024-01-24T02:41:39.085Z,1.50
2024-01-24T02:42:39.117Z,2.15
2024-01-24T02:43:39.018Z,2.14
2024-01-24T02:44:39.006Z,2.18
2024-01-24T02:45:39.033Z,1.64
2024-01-24T02:46:38.947Z,2.21
2024-01-24T02:47:38.944Z,1.95
2024-01-24T02:48:38.932Z,2.09
2024-01-24T02:49:38.999Z,1.97
2024-01-24T02:50:38.833Z,2.18
2024-01-24T02:51:38.810Z,1.82
2024-01-24T02:52:38.792Z,2.31
2024-01-24T02:53:38.746Z,2.00
2024-01-24T02:54:38.809Z,1.77
2024-01-24T02:55:38.696Z,2.15
2024-01-24T02:56:38.714Z,1.57
2024-01-24T02:57:38.682Z,2.11
2024-01-24T02:58:38.645Z,1.92
2024-01-24T02:59:38.595Z,1.70
2024-01-24T03:00:38.672Z,1.78
2024-01-24T03:01:38.614Z,2.22
2024-01-24T03:02:38.589Z,2.24
2024-01-24T03:03:38.665Z,2.19
2024-01-24T03:04:38.598Z,1.92
2024-01-24T03:05:38.585Z,1.98
2024-01-24T03:06:38.630Z,2.05
2024-01-24T03:07:38.592Z,2.14
2024-01-24T03:08:38.513Z,2.06
2024-01-24T03:09:38.497Z,1.91
2024-01-24T03:10:38.448Z,2.06
2024-01-24T03:11:38.428Z,1.61
2024-01-24T03:12:38.436Z,1.90
2024-01-24T03:13:38.381Z,2.14
2024-01-24T03:14:38.346Z,2.11
2024-01-24T03:15:38.353Z,1.80
2024-01-24T03:16:38.293Z,1.41
2024-01-24T03:17:38.316Z,1.79
2024-01-24T03:18:38.288Z,2.27
2024-01-24T03:19:38.322Z,1.97
2024-01-24T03:20:38.213Z,1.64
2024-01-24T03:21:38.240Z,1.50
2024-01-24T03:22:38.249Z,2.20
2024-01-24T03:23:38.254Z,1.85
2024-01-24T03:24:38.276Z,1.90
2024-01-24T03:25:38.224Z,2.23
2024-01-24T03:26:38.182Z,1.99
2024-01-24T03:27:38.206Z,2.18
2024-01-24T03:28:38.138Z,2.00
2024-01-24T03:29:38.116Z,1.89
2024-01-24T03:30:38.133Z,1.87
2024-01-24T03:31:38.074Z,1.97
2024-01-24T03:32:38.098Z,1.64
2024-01-24T03:33:38.123Z,1.61
2024-01-24T03:34:38.110Z,1.58
2024-01-24T03:35:37.974Z,1.84
2024-01-24T03:36:38.063Z,2.05
2024-01-24T03:37:38.107Z,1.54
2024-01-24T03:38:38.040Z,1.85
2024-01-24T03:39:38.034Z,1.55
2024-01-24T03:40:38.016Z,1.92
2024-01-24T03:41:38.024Z,1.64
2024-01-24T03:42:37.993Z,1.75
2024-01-24T03:43:37.950Z,1.80
2024-01-24T03:44:37.883Z,1.70
2024-01-24T03:45:37.890Z,1.63
2024-01-24T03:46:37.865Z,1.60
2024-01-24T03:47:38.019Z,1.69
2024-01-24T03:48:37.980Z,1.78
2024-01-24T03:49:37.898Z,1.48
2024-01-24T03:50:37.833Z,1.74
2024-01-24T03:51:37.941Z,1.61
2024-01-24T03:52:37.829Z,2.07
2024-01-24T03:53:37.799Z,1.88
2024-01-24T03:54:37.798Z,1.77
2024-01-24T03:55:37.704Z,1.81
2024-01-24T03:56:37.665Z,1.75
2024-01-24T03:57:37.690Z,1.45
2024-01-24T03:58:37.619Z,1.65
2024-01-24T03:59:37.622Z,1.78
2024-01-24T04:00:37.638Z,1.71
2024-01-24T04:01:37.556Z,2.03
2024-01-24T04:02:37.549Z,1.56
2024-01-24T04:03:37.631Z,1.56
2024-01-24T04:04:37.612Z,1.89
2024-01-24T04:05:37.616Z,1.76
2024-01-24T04:06:37.700Z,1.71
2024-01-24T04:07:37.662Z,1.75
2024-01-24T04:08:37.690Z,1.51
2024-01-24T04:09:37.792Z,1.86
2024-01-24T04:10:37.729Z,2.09
2024-01-24T04:11:37.776Z,1.52
2024-01-24T04:12:37.859Z,1.20
2024-01-24T04:13:45.005Z,1.75
2024-01-24T04:14:44.997Z,1.59
2024-01-24T04:15:45.618Z,1.68
2024-01-24T04:16:44.993Z,1.62
2024-01-24T04:17:45.025Z,1.43
2024-01-24T04:18:45.074Z,1.32
2024-01-24T04:19:45.111Z,1.68
2024-01-24T04:20:45.000Z,1.65
2024-01-24T04:21:45.069Z,1.52
2024-01-24T04:22:44.992Z,1.53
2024-01-24T04:23:44.992Z,1.85
2024-01-24T04:24:45.000Z,1.66
2024-01-24T04:25:44.991Z,1.65
2024-01-24T04:26:44.974Z,1.49
2024-01-24T04:27:45.006Z,1.59
2024-01-24T04:28:44.990Z,1.50
2024-01-24T04:29:44.966Z,1.40
2024-01-24T04:30:45.047Z,1.88
2024-01-24T04:31:52.209Z,1.66
2024-01-24T04:32:52.288Z,1.74
2024-01-24T04:33:52.336Z,1.45
2024-01-24T04:34:53.545Z,1.39
2024-01-24T04:35:52.242Z,1.31
2024-01-24T04:36:52.284Z,1.78
2024-01-24T04:37:52.250Z,1.49
2024-01-24T04:38:52.264Z,1.89
2024-01-24T04:39:52.368Z,1.82
2024-01-24T04:40:52.287Z,1.54
2024-01-24T04:41:56.320Z,2.04
2024-01-24T04:42:53.345Z,1.40
2024-01-24T04:43:52.326Z,1.80
2024-01-24T04:44:52.330Z,1.43
2024-01-24T04:45:52.382Z,1.47
2024-01-24T04:46:52.376Z,1.66
2024-01-24T04:47:52.421Z,1.60
2024-01-24T04:48:52.453Z,1.66
2024-01-24T04:49:52.451Z,1.44
2024-01-24T04:50:52.409Z,1.79
2024-01-24T04:51:52.540Z,1.49
2024-01-24T04:52:52.423Z,1.63
2024-01-24T04:53:52.431Z,1.86
2024-01-24T04:54:52.628Z,1.77
2024-01-24T04:55:52.456Z,1.49
2024-01-24T04:56:52.486Z,1.52
2024-01-24T04:57:52.489Z,1.57
2024-01-24T04:58:52.523Z,1.49
2024-01-24T04:59:55.993Z,1.65
2024-01-24T05:00:52.627Z,1.59
2024-01-24T05:01:52.524Z,1.63
2024-01-24T05:02:52.532Z,1.78
2024-01-24T05:03:52.651Z,1.61
2024-01-24T05:04:52.596Z,1.72
2024-01-24T05:05:58.559Z,1.09
2024-01-24T05:06:53.651Z,1.90
2024-01-24T05:07:52.631Z,1.74
2024-01-24T05:08:52.645Z,2.06
2024-01-24T05:09:52.704Z,1.69
2024-01-24T05:10:52.662Z,1.81
2024-01-24T05:11:52.666Z,1.69
2024-01-24T05:12:52.739Z,1.55
2024-01-24T05:13:52.693Z,1.48
2024-01-24T05:14:52.708Z,1.59
2024-01-24T05:15:52.779Z,1.91
2024-01-24T05:16:52.732Z,1.74
2024-01-24T05:17:52.793Z,1.61
2024-01-24T05:18:52.864Z,1.67
2024-01-24T05:19:52.736Z,1.81
2024-01-24T05:20:52.752Z,1.89
2024-01-24T05:21:52.928Z,1.54
2024-01-24T05:22:52.766Z,1.66
2024-01-24T05:23:52.768Z,1.57
2024-01-24T05:24:52.801Z,1.48
2024-01-24T05:25:52.842Z,1.77
2024-01-24T05:26:52.871Z,1.69
2024-01-24T05:27:53.014Z,2.14
2024-01-24T05:28:52.958Z,1.66
2024-01-24T05:29:53.016Z,1.88
2024-01-24T05:30:53.089Z,1.60
2024-01-24T05:31:53.111Z,1.86
2024-01-24T05:32:53.159Z,2.18
2024-01-24T05:33:53.210Z,2.14
2024-01-24T05:34:53.306Z,1.74
2024-01-24T05:35:53.277Z,1.66
2024-01-24T05:36:53.425Z,1.62
2024-01-24T05:37:53.381Z,1.98
2024-01-24T05:38:53.393Z,2.43
2024-01-24T05:39:53.595Z,2.17
2024-01-24T05:40:53.502Z,1.91
2024-01-24T05:41:53.551Z,1.95
2024-01-24T05:42:53.956Z,1.90
2024-01-24T05:43:53.667Z,2.29
2024-01-24T05:44:53.685Z,1.99
2024-01-24T05:45:53.795Z,2.06
2024-01-24T05:46:53.818Z,2.12
2024-01-24T05:47:53.958Z,2.29
2024-01-24T05:48:54.020Z,1.90
2024-01-24T05:49:53.931Z,1.94
2024-01-24T05:50:53.954Z,2.00
2024-01-24T05:51:54.038Z,1.97
2024-01-24T05:52:54.040Z,2.06
2024-01-24T05:53:54.078Z,2.51
2024-01-24T05:54:54.382Z,2.29
2024-01-24T05:55:54.166Z,1.99
2024-01-24T05:56:54.220Z,1.77
2024-01-24T05:57:54.399Z,1.70
2024-01-24T05:58:54.317Z,2.01
2024-01-24T05:59:54.409Z,1.93
2024-01-24T06:00:54.512Z,1.79
2024-01-24T06:01:54.470Z,1.64
2024-01-24T06:02:54.493Z,1.57
2024-01-24T06:03:54.637Z,1.89
2024-01-24T06:04:54.737Z,2.22
2024-01-24T06:05:56.333Z,2.16
2024-01-24T06:06:54.725Z,1.89
2024-01-24T06:07:54.826Z,1.78
2024-01-24T06:08:54.780Z,1.78
2024-01-24T06:09:54.846Z,1.88
2024-01-24T06:10:54.899Z,1.84
2024-01-24T06:11:54.913Z,1.65
2024-01-24T06:12:55.081Z,1.81
2024-01-24T06:13:55.028Z,1.93
2024-01-24T06:14:55.064Z,1.86
2024-01-24T06:15:55.178Z,2.04
2024-01-24T06:16:55.154Z,1.93
2024-01-24T06:17:55.223Z,1.64
2024-01-24T06:18:55.335Z,1.71
2024-01-24T06:19:55.292Z,1.81
2024-01-24T06:20:55.361Z,1.68
2024-01-24T06:21:55.430Z,1.94
2024-01-24T06:22:55.439Z,1.74
2024-01-24T06:23:55.466Z,2.10
2024-01-24T06:24:55.572Z,2.16
2024-01-24T06:25:55.610Z,1.87
2024-01-24T06:26:55.624Z,1.67
2024-01-24T06:27:56.024Z,1.94
2024-01-24T06:28:55.707Z,1.75
2024-01-24T06:30:17.552Z,2.02
2024-01-24T06:30:56.811Z,2.15
2024-01-24T06:31:55.814Z,1.49
2024-01-24T06:32:55.823Z,1.50
2024-01-24T06:33:55.886Z,1.90
2024-01-24T06:34:55.806Z,2.13
2024-01-24T06:35:55.796Z,2.31
2024-01-24T06:36:55.838Z,1.85
2024-01-24T06:37:55.804Z,1.99
2024-01-24T06:38:55.804Z,2.20
2024-01-24T06:39:55.812Z,2.12
2024-01-24T06:40:55.837Z,2.23
2024-01-24T06:41:55.826Z,2.12
2024-01-24T06:42:56.073Z,2.19
2024-01-24T06:43:55.832Z,2.11
2024-01-24T06:44:55.838Z,2.11
2024-01-24T06:45:55.872Z,1.83
2024-01-24T06:46:55.877Z,2.12
2024-01-24T06:47:55.909Z,2.47
2024-01-24T06:48:56.044Z,1.94
2024-01-24T06:49:55.862Z,2.38
2024-01-24T06:50:55.872Z,2.27
2024-01-24T06:51:55.959Z,2.09
2024-01-24T06:52:56.656Z,2.14
2024-01-24T06:53:55.843Z,2.62
2024-01-24T06:54:55.846Z,2.74
2024-01-24T06:55:56.009Z,2.71
2024-01-24T06:56:55.978Z,2.14
2024-01-24T06:57:55.933Z,3.44
2024-01-24T06:58:55.863Z,2.27
2024-01-24T06:59:55.891Z,2.68
2024-01-24T07:00:55.959Z,2.75
2024-01-24T07:01:56.018Z,2.50
2024-01-24T07:02:55.920Z,2.04
2024-01-24T07:03:56.046Z,2.08
2024-01-24T07:04:56.024Z,2.63
2024-01-24T07:05:56.107Z,2.38
2024-01-24T07:06:55.986Z,2.60
2024-01-24T07:07:56.029Z,2.78
2024-01-24T07:08:56.044Z,2.02
2024-01-24T07:09:56.101Z,2.44
2024-01-24T07:10:56.070Z,2.86
2024-01-24T07:11:56.047Z,2.75
2024-01-24T07:12:56.140Z,2.43
2024-01-24T07:13:56.079Z,2.16
2024-01-24T07:14:56.076Z,2.74
2024-01-24T07:15:56.134Z,2.37
2024-01-24T07:16:56.103Z,2.07
2024-01-24T07:17:56.177Z,2.17
2024-01-24T07:18:56.145Z,2.14
2024-01-24T07:19:56.087Z,2.28
2024-01-24T07:20:56.047Z,2.28
2024-01-24T07:21:56.122Z,2.44
2024-01-24T07:22:56.114Z,2.34
2024-01-24T07:23:56.016Z,2.68
2024-01-24T07:24:56.100Z,1.89
2024-01-24T07:25:56.022Z,2.67
2024-01-24T07:26:56.034Z,2.04
2024-01-24T07:27:56.128Z,2.03
2024-01-24T07:28:56.075Z,2.10
2024-01-24T07:29:56.173Z,1.83
2024-01-24T07:30:56.038Z,2.13
2024-01-24T07:31:56.028Z,1.83
2024-01-24T07:32:56.147Z,2.71
2024-01-24T07:33:56.148Z,2.22
2024-01-24T07:34:56.205Z,2.43
2024-01-24T07:35:56.055Z,1.83
2024-01-24T07:36:56.182Z,2.08
2024-01-24T07:37:55.981Z,2.05
2024-01-24T07:38:56.058Z,2.00
2024-01-24T07:39:56.163Z,1.62
2024-01-24T07:40:56.006Z,1.93
2024-01-24T07:41:55.958Z,2.30
2024-01-24T07:42:56.450Z,1.80
2024-01-24T07:43:56.041Z,2.33
2024-01-24T07:44:56.922Z,1.63
2024-01-24T07:45:56.063Z,1.80
2024-01-24T07:46:56.019Z,2.03
2024-01-24T07:47:56.049Z,2.25
2024-01-24T07:48:56.162Z,2.28
2024-01-24T07:49:56.149Z,1.86
2024-01-24T07:50:55.962Z,2.15
2024-01-24T07:51:56.332Z,2.20
2024-01-24T07:52:56.107Z,2.09
2024-01-24T07:53:55.973Z,2.20
2024-01-24T07:54:57.066Z,2.85
2024-01-24T07:56:02.587Z,2.70
2024-01-24T07:56:56.972Z,2.42
2024-01-24T07:57:56.171Z,2.19
2024-01-24T07:58:56.023Z,2.49
2024-01-24T07:59:55.989Z,2.45
2024-01-24T08:00:56.173Z,2.56
2024-01-24T08:01:56.001Z,3.07
2024-01-24T08:02:55.966Z,2.52
2024-01-24T08:03:56.094Z,2.10
2024-01-24T08:04:56.230Z,2.95
2024-01-24T08:05:55.957Z,2.09
2024-01-24T08:06:56.019Z,3.04
2024-01-24T08:07:56.405Z,1.98
2024-01-24T08:08:55.960Z,2.50
2024-01-24T08:09:56.206Z,2.47
2024-01-24T08:10:56.140Z,2.35
2024-01-24T08:11:56.169Z,2.53
2024-01-24T08:12:56.225Z,1.99
2024-01-24T08:13:56.184Z,1.75
2024-01-24T08:14:56.256Z,2.23
2024-01-24T08:15:56.430Z,4.74
2024-01-24T08:16:56.361Z,2.65
2024-01-24T08:17:56.472Z,2.14
2024-01-24T08:18:56.701Z,3.16
2024-01-24T08:19:56.627Z,2.63
2024-01-24T08:20:56.756Z,2.05
2024-01-24T08:21:56.746Z,2.30
2024-01-24T08:22:56.925Z,2.75
2024-01-24T08:23:56.538Z,2.36
2024-01-24T08:24:56.627Z,2.28
2024-01-24T08:25:56.525Z,2.41
2024-01-24T08:26:56.544Z,2.76
2024-01-24T08:27:56.665Z,3.01
2024-01-24T08:28:56.565Z,1.65
2024-01-24T08:29:56.645Z,2.54
2024-01-24T08:30:56.736Z,1.97
2024-01-24T08:31:56.815Z,2.11
2024-01-24T08:32:56.892Z,2.00
2024-01-24T08:33:56.860Z,2.41
2024-01-24T08:34:56.745Z,2.11
2024-01-24T08:35:56.682Z,2.29
2024-01-24T08:36:56.724Z,2.20
2024-01-24T08:37:56.759Z,2.66
2024-01-24T08:38:56.691Z,3.28
2024-01-24T08:39:56.686Z,2.73
2024-01-24T08:40:56.621Z,3.38
2024-01-24T08:41:56.626Z,2.48
2024-01-24T08:42:56.708Z,2.57
2024-01-24T08:43:57.405Z,2.20
2024-01-24T08:44:56.903Z,2.04
2024-01-24T08:45:56.946Z,2.31
2024-01-24T08:46:56.900Z,2.22
2024-01-24T08:47:56.937Z,2.34
2024-01-24T08:48:57.012Z,2.22
2024-01-24T08:49:57.025Z,2.44
2024-01-24T08:50:56.946Z,2.26
2024-01-24T08:51:57.018Z,1.74
2024-01-24T08:52:57.000Z,1.61
2024-01-24T08:53:56.954Z,1.97
2024-01-24T08:54:57.005Z,1.90
2024-01-24T08:55:56.961Z,1.80
2024-01-24T08:56:56.956Z,2.15
2024-01-24T08:57:57.049Z,2.13
2024-01-24T08:58:56.947Z,2.08
2024-01-24T08:59:57.074Z,2.07
2024-01-24T09:00:57.020Z,2.06
2024-01-24T09:01:56.970Z,2.06
2024-01-24T09:02:56.969Z,2.26
2024-01-24T09:03:56.971Z,1.74
2024-01-24T09:04:56.990Z,1.76
2024-01-24T09:05:56.965Z,2.06
2024-01-24T09:06:57.092Z,1.81
2024-01-24T09:07:56.898Z,1.96
2024-01-24T09:08:56.907Z,1.60
2024-01-24T09:09:56.885Z,1.92
2024-01-24T09:10:56.856Z,2.02
2024-01-24T09:11:57.606Z,2.15
2024-01-24T09:12:56.901Z,1.98
2024-01-24T09:13:56.871Z,2.00
2024-01-24T09:14:56.808Z,2.43
2024-01-24T09:15:56.827Z,2.17
2024-01-24T09:16:56.782Z,1.78
2024-01-24T09:17:56.911Z,2.21
2024-01-24T09:18:56.918Z,2.62
2024-01-24T09:19:57.060Z,2.40
2024-01-24T09:20:56.932Z,2.36
2024-01-24T09:21:57.118Z,2.61
2024-01-24T09:22:57.021Z,2.36
2024-01-24T09:23:57.062Z,2.75
2024-01-24T09:24:57.145Z,2.81
2024-01-24T09:25:57.136Z,2.56
2024-01-24T09:26:57.196Z,3.15
2024-01-24T09:27:57.407Z,2.41
2024-01-24T09:28:57.252Z,2.56
2024-01-24T09:29:57.305Z,3.29
2024-01-24T09:30:57.396Z,1.87
2024-01-24T09:31:57.413Z,3.29
2024-01-24T09:32:57.589Z,3.22
2024-01-24T09:33:57.600Z,3.22
2024-01-24T09:34:57.532Z,3.49
2024-01-24T09:35:57.483Z,2.77
2024-01-24T09:36:57.462Z,2.87
2024-01-24T09:37:57.458Z,3.54
2024-01-24T09:38:57.429Z,3.02
2024-01-24T09:39:57.513Z,3.32
2024-01-24T09:40:57.530Z,3.20
2024-01-24T09:41:57.468Z,2.74
2024-01-24T09:42:57.523Z,3.11
2024-01-24T09:43:57.465Z,2.90
2024-01-24T09:44:57.473Z,3.41
2024-01-24T09:45:57.532Z,3.06
2024-01-24T09:46:57.540Z,3.23
2024-01-24T09:47:57.513Z,3.46
2024-01-24T09:48:57.551Z,2.55
2024-01-24T09:49:57.488Z,3.61
2024-01-24T09:50:57.477Z,2.96
2024-01-24T09:51:57.632Z,3.26
2024-01-24T09:52:57.493Z,3.16
2024-01-24T09:53:57.521Z,3.80
2024-01-24T09:54:57.644Z,3.85
2024-01-24T09:55:57.560Z,4.13
2024-01-24T09:56:57.583Z,3.82
2024-01-24T09:57:57.621Z,4.28
2024-01-24T09:58:57.599Z,3.78
2024-01-24T09:59:57.535Z,3.84
2024-01-24T10:00:57.667Z,3.56
2024-01-24T10:01:57.676Z,3.75
2024-01-24T10:02:57.651Z,3.60
2024-01-24T10:03:57.751Z,3.28
2024-01-24T10:04:57.641Z,3.84
2024-01-24T10:05:57.640Z,3.64
2024-01-24T10:06:57.714Z,3.29
2024-01-24T10:07:57.719Z,3.29
2024-01-24T10:08:57.665Z,3.14
2024-01-24T10:10:00.164Z,3.46
2024-01-24T10:10:57.680Z,3.46
2024-01-24T10:11:57.680Z,2.83
2024-01-24T10:12:57.748Z,3.35
2024-01-24T10:13:57.660Z,2.73
2024-01-24T10:14:57.658Z,2.68
2024-01-24T10:15:57.704Z,3.04
2024-01-24T10:16:57.652Z,2.69
2024-01-24T10:17:57.679Z,2.55
2024-01-24T10:18:57.780Z,2.83
2024-01-24T10:19:57.769Z,2.57
2024-01-24T10:20:57.650Z,2.95
2024-01-24T10:21:57.708Z,3.07
2024-01-24T10:22:57.640Z,2.87
2024-01-24T10:23:57.621Z,3.14
2024-01-24T10:24:57.668Z,2.94
2024-01-24T10:25:57.695Z,3.06
2024-01-24T10:26:57.638Z,3.23
2024-01-24T10:27:57.644Z,3.63
2024-01-24T10:28:57.612Z,4.05
2024-01-24T10:29:57.599Z,4.47
2024-01-24T10:30:57.675Z,4.21
2024-01-24T10:31:57.628Z,4.46
2024-01-24T10:32:57.659Z,5.05
2024-01-24T10:33:57.807Z,4.75
2024-01-24T10:34:57.648Z,5.03
2024-01-24T10:35:59.415Z,5.18
2024-01-24T10:36:57.625Z,5.11
2024-01-24T10:37:57.596Z,5.00
2024-01-24T10:38:57.591Z,4.05
2024-01-24T10:39:57.610Z,4.59
2024-01-24T10:40:57.572Z,4.20
2024-01-24T10:41:57.598Z,3.89
2024-01-24T10:42:57.720Z,3.54
2024-01-24T10:43:57.585Z,3.63
2024-01-24T10:44:57.570Z,3.47
2024-01-24T10:45:57.715Z,3.50
2024-01-24T10:46:57.618Z,3.41
2024-01-24T10:47:57.607Z,3.24
2024-01-24T10:48:57.645Z,3.10
2024-01-24T10:49:57.753Z,3.80
2024-01-24T10:50:57.538Z,3.23
2024-01-24T10:51:57.648Z,4.15
2024-01-24T10:52:57.518Z,3.61
2024-01-24T10:53:57.523Z,3.85
2024-01-24T10:54:57.512Z,3.90
2024-01-24T10:55:57.487Z,3.63
2024-01-24T10:56:57.470Z,3.42
2024-01-24T10:57:57.548Z,2.77
2024-01-24T10:58:57.463Z,4.17
2024-01-24T10:59:57.453Z,3.33
2024-01-24T11:00:57.528Z,2.86
2024-01-24T11:01:57.454Z,3.42
2024-01-24T11:02:57.478Z,3.52
2024-01-24T11:03:57.463Z,4.37
2024-01-24T11:04:57.449Z,3.02
2024-01-24T11:05:57.507Z,2.96
2024-01-24T11:06:57.464Z,3.26
2024-01-24T11:07:57.432Z,3.44
2024-01-24T11:08:57.431Z,3.65
2024-01-24T11:09:57.454Z,3.56
2024-01-24T11:10:57.376Z,3.17
2024-01-24T11:11:57.380Z,3.94
2024-01-24T11:12:57.476Z,3.15
2024-01-24T11:13:57.374Z,2.89
2024-01-24T11:14:57.372Z,3.28
2024-01-24T11:15:57.446Z,2.79
2024-01-24T11:16:57.337Z,3.07
2024-01-24T11:17:57.376Z,3.08
2024-01-24T11:18:57.429Z,3.62
2024-01-24T11:19:57.527Z,3.26
2024-01-24T11:20:57.355Z,3.52
2024-01-24T11:21:57.546Z,3.60
2024-01-24T11:22:57.310Z,2.66
2024-01-24T11:23:57.304Z,2.89
2024-01-24T11:24:57.325Z,3.66
2024-01-24T11:25:57.291Z,3.17
2024-01-24T11:26:58.259Z,3.03
2024-01-24T11:27:57.374Z,2.54
2024-01-24T11:28:57.259Z,3.08
2024-01-24T11:29:57.274Z,2.54
2024-01-24T11:30:57.274Z,2.96
2024-01-24T11:31:57.268Z,3.12
2024-01-24T11:32:57.428Z,3.32
2024-01-24T11:33:57.351Z,2.89
2024-01-24T11:34:57.388Z,2.92
2024-01-24T11:35:57.277Z,3.16
2024-01-24T11:36:57.321Z,3.05
2024-01-24T11:38:04.782Z,2.52
2024-01-24T11:38:58.268Z,3.11
2024-01-24T11:39:57.334Z,3.14
2024-01-24T11:40:57.256Z,3.34
2024-01-24T11:41:57.230Z,3.98
2024-01-24T11:42:57.274Z,3.72
2024-01-24T11:43:57.239Z,4.00
2024-01-24T11:44:57.213Z,3.44
2024-01-24T11:45:57.338Z,3.30
2024-01-24T11:46:57.236Z,3.44
2024-01-24T11:47:57.336Z,3.32
2024-01-24T11:48:57.264Z,3.09
2024-01-24T11:49:57.375Z,2.92
2024-01-24T11:50:57.218Z,3.39
2024-01-24T11:51:57.276Z,2.68
2024-01-24T11:52:57.231Z,3.01
2024-01-24T11:53:57.237Z,3.18
2024-01-24T11:54:57.309Z,2.62
2024-01-24T11:55:57.314Z,3.01
2024-01-24T11:56:57.311Z,2.51
2024-01-24T11:57:57.448Z,2.42
2024-01-24T11:58:57.394Z,2.76
2024-01-24T11:59:57.453Z,2.77
2024-01-24T12:00:57.665Z,2.66
2024-01-24T12:01:57.615Z,2.65
2024-01-24T12:02:57.689Z,2.16
2024-01-24T12:03:57.753Z,2.95
2024-01-24T12:04:57.765Z,2.44
2024-01-24T12:05:57.838Z,2.69
2024-01-24T12:06:57.891Z,2.46
2024-01-24T12:07:57.901Z,2.19
2024-01-24T12:08:58.567Z,2.60
2024-01-24T12:09:58.233Z,2.43
2024-01-24T12:10:58.031Z,2.29
2024-01-24T12:11:58.078Z,2.18
2024-01-24T12:12:58.232Z,2.07
2024-01-24T12:13:58.197Z,2.46
2024-01-24T12:14:59.349Z,2.50
2024-01-24T12:15:58.593Z,2.05
2024-01-24T12:16:58.444Z,1.61
2024-01-24T12:17:58.438Z,2.37
2024-01-24T12:18:58.556Z,1.87
2024-01-24T12:19:58.511Z,2.11
2024-01-24T12:21:02.146Z,1.22
2024-01-24T12:21:58.559Z,1.04
2024-01-24T12:22:58.517Z,1.13
2024-01-24T12:23:58.561Z,1.25
2024-01-24T12:24:58.633Z,1.92
2024-01-24T12:25:58.614Z,2.54
2024-01-24T12:27:00.217Z,2.31
2024-01-24T12:27:58.736Z,2.54
2024-01-24T12:28:58.641Z,2.33
2024-01-24T12:29:58.702Z,2.28
2024-01-24T12:30:58.811Z,3.13
2024-01-24T12:31:58.679Z,2.66
2024-01-24T12:32:58.909Z,2.72
2024-01-24T12:33:58.695Z,2.94
2024-01-24T12:34:58.875Z,3.28
2024-01-24T12:35:58.669Z,3.75
2024-01-24T12:36:58.747Z,3.48
2024-01-24T12:37:58.662Z,3.22
2024-01-24T12:38:58.935Z,3.38
2024-01-24T12:39:58.747Z,3.40
2024-01-24T12:40:58.677Z,3.54
2024-01-24T12:41:58.638Z,3.45
2024-01-24T12:42:58.727Z,3.73
2024-01-24T12:43:58.649Z,2.48
2024-01-24T12:44:58.622Z,2.94
2024-01-24T12:45:58.621Z,3.27
2024-01-24T12:46:58.624Z,3.16
2024-01-24T12:47:58.652Z,2.80
2024-01-24T12:48:58.714Z,3.15
2024-01-24T12:49:58.796Z,3.40
2024-01-24T12:50:58.614Z,3.17
2024-01-24T12:51:58.579Z,2.88
2024-01-24T12:52:58.588Z,3.09
2024-01-24T12:53:58.595Z,3.99
2024-01-24T12:54:58.669Z,3.13
2024-01-24T12:55:59.529Z,2.83
2024-01-24T12:56:58.748Z,2.94
2024-01-24T12:57:58.816Z,3.13
2024-01-24T12:58:58.844Z,2.41
2024-01-24T12:59:59.004Z,2.36
2024-01-24T13:00:59.035Z,3.11
2024-01-24T13:01:59.099Z,2.34
2024-01-24T13:02:59.116Z,2.66
2024-01-24T13:03:59.191Z,2.41
2024-01-24T13:04:59.558Z,2.20
2024-01-24T13:05:59.562Z,2.30
2024-01-24T13:06:59.420Z,2.40
2024-01-24T13:07:59.438Z,2.40
2024-01-24T13:08:59.528Z,2.04
2024-01-24T13:10:01.475Z,2.30
2024-01-24T13:11:00.412Z,2.35
2024-01-24T13:11:59.581Z,2.70
2024-01-24T13:12:59.474Z,2.35
2024-01-24T13:13:59.366Z,2.25
2024-01-24T13:14:59.353Z,2.30
2024-01-24T13:15:59.452Z,2.42
2024-01-24T13:16:59.425Z,2.31
2024-01-24T13:17:59.484Z,2.15
2024-01-24T13:18:59.511Z,2.17